RJAH(METAR)
07/17 15:00
METAR RJAH 170600Z 08007KT 9999 FEW012 BKN015 BKN230 26/21 Q1012 RMK
1CU012 6CU015 A2991=
戻る
トップページへ戻る
IMOC Co,.Ltd.